Huvudsida
METAR-TAF:

METAR-TAF

Flygplatser :

Kristiansunds, Norge

Kristiansunds flygplats. Kvernberget

latitud: 63-07N, longitud: 007-50E, höjd: 6 m

Aktuellt väderrapport

Denna rapport gjordes för 34 minuter sedan, klockan 10:20 UTC
Vind 4 kt från ost, varierande mellan ost/nordost och syd/sydost
Temperatur 0°C
Fuktighet 64%
Tryck 983 hPa
Sikt 10 km eller mer
Inga moln under 1 500 m eller inga cumulonimbus

METAR: ENKB 171020Z 09004KT 060V160 CAVOK 00/M06 Q0983 RMK WIND 745FT 15010KT

Tid: 11:54 (10:54 UTC)

Väderprognos

Denna rapport gjordes för 2 timmar och 54 minuter sedan, klockan 08:00 UTC
Prognos gäller från 17 kl. 09 UTC till 17 kl. 18 UTC
Vind 7 kt från sydost
Sikt 10 km eller mer
Inga moln under 1 500 m eller inga cumulonimbus

TAF: ENKB 170800Z 1709/1718 13007KT CAVOK

Aktuella väderrapporter och prognoser från 4000 flygplatser (METAR- och TAF-rapporter).

De tillgängliga stationerna syns som gula och röda prickar på kartan.

För musen över prickarna för att se namnen på stationerna.

Klicka sedan för att få väderrapporter och prognoser.

För att ändra kartan: Klicka på de gröna knapparna med ett svart kors på för att zooma in; den gröna knappen med ett streck på för att zooma ut; eller på de gröna pilarna för angränsande kartor.


METAR-TAF: